sensor_id;sensor_type;location;lat;lon;timestamp;temperature;humidity
24338;DHT22;12457;50.832;4.346;2023-09-12T00:00:35;21.60;99.90
24338;DHT22;12457;50.832;4.346;2023-09-12T00:03:01;21.60;99.90
24338;DHT22;12457;50.832;4.346;2023-09-12T00:05:26;21.60;99.90
24338;DHT22;12457;50.832;4.346;2023-09-12T00:07:52;21.70;99.90
24338;DHT22;12457;50.832;4.346;2023-09-12T00:10:19;21.70;99.90
24338;DHT22;12457;50.832;4.346;2023-09-12T00:12:45;21.70;99.90
24338;DHT22;12457;50.832;4.346;2023-09-12T00:15:11;21.80;99.90
24338;DHT22;12457;50.832;4.346;2023-09-12T00:17:36;21.90;99.90
24338;DHT22;12457;50.832;4.346;2023-09-12T00:20:02;21.90;99.90
24338;DHT22;12457;50.832;4.346;2023-09-12T00:22:29;22.00;99.90
24338;DHT22;12457;50.832;4.346;2023-09-12T00:24:55;22.10;99.90
24338;DHT22;12457;50.832;4.346;2023-09-12T00:27:21;22.10;99.90
24338;DHT22;12457;50.832;4.346;2023-09-12T00:29:46;22.10;99.90
24338;DHT22;12457;50.832;4.346;2023-09-12T00:32:12;22.00;99.90
24338;DHT22;12457;50.832;4.346;2023-09-12T00:34:38;22.00;99.90
24338;DHT22;12457;50.832;4.346;2023-09-12T00:37:04;22.10;99.90
24338;DHT22;12457;50.832;4.346;2023-09-12T00:39:30;22.10;99.90
24338;DHT22;12457;50.832;4.346;2023-09-12T00:41:56;22.10;99.90
24338;DHT22;12457;50.832;4.346;2023-09-12T00:44:21;22.00;99.90
24338;DHT22;12457;50.832;4.346;2023-09-12T00:46:48;22.00;99.90
24338;DHT22;12457;50.832;4.346;2023-09-12T00:49:15;22.10;99.90
24338;DHT22;12457;50.832;4.346;2023-09-12T00:51:43;22.10;99.90
24338;DHT22;12457;50.832;4.346;2023-09-12T00:54:10;22.20;99.90
24338;DHT22;12457;50.832;4.346;2023-09-12T00:56:36;22.20;99.90
24338;DHT22;12457;50.832;4.346;2023-09-12T00:59:03;22.10;99.90
24338;DHT22;12457;50.832;4.346;2023-09-12T01:01:29;22.00;99.90
24338;DHT22;12457;50.832;4.346;2023-09-12T01:03:57;22.00;99.90
24338;DHT22;12457;50.832;4.346;2023-09-12T01:06:24;22.00;99.90
24338;DHT22;12457;50.832;4.346;2023-09-12T01:08:54;22.20;99.90
24338;DHT22;12457;50.832;4.346;2023-09-12T01:11:20;22.30;99.90
24338;DHT22;12457;50.832;4.346;2023-09-12T01:13:46;22.20;99.90
24338;DHT22;12457;50.832;4.346;2023-09-12T01:16:13;22.20;99.90
24338;DHT22;12457;50.832;4.346;2023-09-12T01:18:39;22.00;99.90
24338;DHT22;12457;50.832;4.346;2023-09-12T01:24:04;21.80;99.90
24338;DHT22;12457;50.832;4.346;2023-09-12T01:29:07;21.50;99.90
24338;DHT22;12457;50.832;4.346;2023-09-12T01:31:36;21.40;99.90
24338;DHT22;12457;50.832;4.346;2023-09-12T01:34:12;21.20;99.90
24338;DHT22;12457;50.832;4.346;2023-09-12T01:36:38;21.30;99.90
24338;DHT22;12457;50.832;4.346;2023-09-12T01:39:04;21.30;99.90
24338;DHT22;12457;50.832;4.346;2023-09-12T01:41:32;21.20;99.90
24338;DHT22;12457;50.832;4.346;2023-09-12T01:44:00;21.30;99.90
24338;DHT22;12457;50.832;4.346;2023-09-12T01:46:27;21.20;99.90
24338;DHT22;12457;50.832;4.346;2023-09-12T01:48:55;21.20;99.90
24338;DHT22;12457;50.832;4.346;2023-09-12T01:51:22;21.20;99.90
24338;DHT22;12457;50.832;4.346;2023-09-12T01:53:49;21.20;99.90
24338;DHT22;12457;50.832;4.346;2023-09-12T01:56:17;21.20;99.90
24338;DHT22;12457;50.832;4.346;2023-09-12T01:58:43;21.30;99.90
24338;DHT22;12457;50.832;4.346;2023-09-12T02:01:09;21.20;99.90
24338;DHT22;12457;50.832;4.346;2023-09-12T02:03:40;21.10;99.90
24338;DHT22;12457;50.832;4.346;2023-09-12T02:06:06;21.00;99.90
24338;DHT22;12457;50.832;4.346;2023-09-12T02:08:31;21.10;99.90
24338;DHT22;12457;50.832;4.346;2023-09-12T02:10:57;21.10;99.90
24338;DHT22;12457;50.832;4.346;2023-09-12T02:13:23;21.20;99.90
24338;DHT22;12457;50.832;4.346;2023-09-12T02:15:48;21.20;99.90
24338;DHT22;12457;50.832;4.346;2023-09-12T02:18:14;21.30;99.90
24338;DHT22;12457;50.832;4.346;2023-09-12T02:20:41;21.20;99.90
24338;DHT22;12457;50.832;4.346;2023-09-12T02:23:07;21.20;99.90
24338;DHT22;12457;50.832;4.346;2023-09-12T02:25:32;21.20;99.90
24338;DHT22;12457;50.832;4.346;2023-09-12T02:27:58;21.10;99.90
24338;DHT22;12457;50.832;4.346;2023-09-12T02:30:24;21.10;99.90
24338;DHT22;12457;50.832;4.346;2023-09-12T02:32:50;20.90;99.90
24338;DHT22;12457;50.832;4.346;2023-09-12T02:35:15;20.90;99.90
24338;DHT22;12457;50.832;4.346;2023-09-12T02:37:41;20.90;99.90
24338;DHT22;12457;50.832;4.346;2023-09-12T02:40:07;20.80;99.90
24338;DHT22;12457;50.832;4.346;2023-09-12T02:42:36;20.80;99.90
24338;DHT22;12457;50.832;4.346;2023-09-12T02:45:02;20.80;99.90
24338;DHT22;12457;50.832;4.346;2023-09-12T02:47:27;20.80;99.90
24338;DHT22;12457;50.832;4.346;2023-09-12T02:49:54;20.90;99.90
24338;DHT22;12457;50.832;4.346;2023-09-12T02:52:20;20.90;99.90
24338;DHT22;12457;50.832;4.346;2023-09-12T02:54:46;21.00;99.90
24338;DHT22;12457;50.832;4.346;2023-09-12T02:57:11;21.00;99.90
24338;DHT22;12457;50.832;4.346;2023-09-12T02:59:38;21.10;99.90
24338;DHT22;12457;50.832;4.346;2023-09-12T03:02:04;21.10;99.90
24338;DHT22;12457;50.832;4.346;2023-09-12T03:04:30;21.20;99.90
24338;DHT22;12457;50.832;4.346;2023-09-12T03:06:55;21.20;99.90
24338;DHT22;12457;50.832;4.346;2023-09-12T03:09:21;21.30;99.90
24338;DHT22;12457;50.832;4.346;2023-09-12T03:11:49;21.40;99.90
24338;DHT22;12457;50.832;4.346;2023-09-12T03:14:15;21.50;99.90
24338;DHT22;12457;50.832;4.346;2023-09-12T03:16:41;21.60;99.90
24338;DHT22;12457;50.832;4.346;2023-09-12T03:19:06;21.60;99.90
24338;DHT22;12457;50.832;4.346;2023-09-12T03:21:32;21.70;99.90
24338;DHT22;12457;50.832;4.346;2023-09-12T03:23:58;21.70;99.90
24338;DHT22;12457;50.832;4.346;2023-09-12T03:26:23;21.70;99.90
24338;DHT22;12457;50.832;4.346;2023-09-12T03:28:50;21.70;99.90
24338;DHT22;12457;50.832;4.346;2023-09-12T03:31:16;21.60;99.90
24338;DHT22;12457;50.832;4.346;2023-09-12T03:33:57;21.70;99.90
24338;DHT22;12457;50.832;4.346;2023-09-12T03:36:23;21.60;99.90
24338;DHT22;12457;50.832;4.346;2023-09-12T03:38:49;21.60;99.90
24338;DHT22;12457;50.832;4.346;2023-09-12T03:41:16;21.60;99.90
24338;DHT22;12457;50.832;4.346;2023-09-12T03:43:42;21.60;99.90
24338;DHT22;12457;50.832;4.346;2023-09-12T03:46:08;21.70;99.90
24338;DHT22;12457;50.832;4.346;2023-09-12T03:48:34;21.70;99.90
24338;DHT22;12457;50.832;4.346;2023-09-12T03:51:03;21.80;99.90
24338;DHT22;12457;50.832;4.346;2023-09-12T03:53:29;21.70;99.90
24338;DHT22;12457;50.832;4.346;2023-09-12T03:55:55;21.60;99.90
24338;DHT22;12457;50.832;4.346;2023-09-12T03:58:21;21.60;99.90
24338;DHT22;12457;50.832;4.346;2023-09-12T04:00:47;21.60;99.90
24338;DHT22;12457;50.832;4.346;2023-09-12T04:03:12;21.60;99.90
24338;DHT22;12457;50.832;4.346;2023-09-12T04:05:38;21.50;99.90
24338;DHT22;12457;50.832;4.346;2023-09-12T04:08:04;21.50;99.90
24338;DHT22;12457;50.832;4.346;2023-09-12T04:10:30;21.30;99.90
24338;DHT22;12457;50.832;4.346;2023-09-12T04:12:57;21.30;99.90
24338;DHT22;12457;50.832;4.346;2023-09-12T04:15:23;21.20;99.90
24338;DHT22;12457;50.832;4.346;2023-09-12T04:17:49;21.20;99.90
24338;DHT22;12457;50.832;4.346;2023-09-12T04:20:14;21.30;99.90
24338;DHT22;12457;50.832;4.346;2023-09-12T04:22:42;21.30;99.90
24338;DHT22;12457;50.832;4.346;2023-09-12T04:25:07;21.20;99.90
24338;DHT22;12457;50.832;4.346;2023-09-12T04:27:33;21.20;99.90
24338;DHT22;12457;50.832;4.346;2023-09-12T04:30:00;21.30;99.90
24338;DHT22;12457;50.832;4.346;2023-09-12T04:32:25;21.40;99.90
24338;DHT22;12457;50.832;4.346;2023-09-12T04:34:51;21.50;99.90
24338;DHT22;12457;50.832;4.346;2023-09-12T04:37:17;21.50;99.90
24338;DHT22;12457;50.832;4.346;2023-09-12T04:39:44;21.50;99.90
24338;DHT22;12457;50.832;4.346;2023-09-12T04:42:09;21.60;99.90
24338;DHT22;12457;50.832;4.346;2023-09-12T04:44:39;21.70;99.90
24338;DHT22;12457;50.832;4.346;2023-09-12T04:47:05;21.70;99.90
24338;DHT22;12457;50.832;4.346;2023-09-12T04:49:33;21.70;99.90
24338;DHT22;12457;50.832;4.346;2023-09-12T04:51:58;21.60;99.90
24338;DHT22;12457;50.832;4.346;2023-09-12T04:54:24;21.60;99.90
24338;DHT22;12457;50.832;4.346;2023-09-12T04:56:50;21.60;99.90
24338;DHT22;12457;50.832;4.346;2023-09-12T04:59:16;21.50;99.90
24338;DHT22;12457;50.832;4.346;2023-09-12T05:01:42;21.50;99.90
24338;DHT22;12457;50.832;4.346;2023-09-12T05:04:08;21.50;99.90
24338;DHT22;12457;50.832;4.346;2023-09-12T05:06:34;21.50;99.90
24338;DHT22;12457;50.832;4.346;2023-09-12T05:09:00;21.60;99.90
24338;DHT22;12457;50.832;4.346;2023-09-12T05:11:26;21.60;99.90
24338;DHT22;12457;50.832;4.346;2023-09-12T05:13:52;21.60;99.90
24338;DHT22;12457;50.832;4.346;2023-09-12T05:16:17;21.50;99.90
24338;DHT22;12457;50.832;4.346;2023-09-12T05:18:43;21.40;99.90
24338;DHT22;12457;50.832;4.346;2023-09-12T05:21:10;21.30;99.90
24338;DHT22;12457;50.832;4.346;2023-09-12T05:23:35;21.20;99.90
24338;DHT22;12457;50.832;4.346;2023-09-12T05:26:01;21.10;99.90
24338;DHT22;12457;50.832;4.346;2023-09-12T05:28:30;21.00;99.90
24338;DHT22;12457;50.832;4.346;2023-09-12T05:30:56;21.10;99.90
24338;DHT22;12457;50.832;4.346;2023-09-12T05:33:22;21.00;99.90
24338;DHT22;12457;50.832;4.346;2023-09-12T05:35:48;21.00;99.90
24338;DHT22;12457;50.832;4.346;2023-09-12T05:38:13;20.90;99.90
24338;DHT22;12457;50.832;4.346;2023-09-12T05:40:39;20.90;99.90
24338;DHT22;12457;50.832;4.346;2023-09-12T05:43:05;20.90;99.90
24338;DHT22;12457;50.832;4.346;2023-09-12T05:45:31;20.80;99.90
24338;DHT22;12457;50.832;4.346;2023-09-12T05:47:58;20.70;99.90
24338;DHT22;12457;50.832;4.346;2023-09-12T05:50:24;20.70;99.90
24338;DHT22;12457;50.832;4.346;2023-09-12T05:52:49;20.80;99.90
24338;DHT22;12457;50.832;4.346;2023-09-12T05:55:16;20.80;99.90
24338;DHT22;12457;50.832;4.346;2023-09-12T05:57:43;20.90;99.90
24338;DHT22;12457;50.832;4.346;2023-09-12T06:00:10;20.90;99.90
24338;DHT22;12457;50.832;4.346;2023-09-12T06:02:38;20.80;99.90
24338;DHT22;12457;50.832;4.346;2023-09-12T06:05:07;20.80;99.90
24338;DHT22;12457;50.832;4.346;2023-09-12T06:07:34;20.90;99.90
24338;DHT22;12457;50.832;4.346;2023-09-12T06:09:59;21.00;99.90
24338;DHT22;12457;50.832;4.346;2023-09-12T06:12:25;21.10;99.90
24338;DHT22;12457;50.832;4.346;2023-09-12T06:14:51;21.20;99.90
24338;DHT22;12457;50.832;4.346;2023-09-12T06:17:18;21.30;99.90
24338;DHT22;12457;50.832;4.346;2023-09-12T06:19:44;21.30;99.90
24338;DHT22;12457;50.832;4.346;2023-09-12T06:22:11;21.40;99.90
24338;DHT22;12457;50.832;4.346;2023-09-12T06:24:38;21.40;99.90
24338;DHT22;12457;50.832;4.346;2023-09-12T06:27:05;21.70;99.90
24338;DHT22;12457;50.832;4.346;2023-09-12T06:29:30;21.90;99.90
24338;DHT22;12457;50.832;4.346;2023-09-12T06:31:56;22.00;99.90
24338;DHT22;12457;50.832;4.346;2023-09-12T06:34:38;22.20;99.90
24338;DHT22;12457;50.832;4.346;2023-09-12T06:37:03;22.30;99.90
24338;DHT22;12457;50.832;4.346;2023-09-12T06:39:31;22.50;99.90
24338;DHT22;12457;50.832;4.346;2023-09-12T06:41:57;22.60;99.90
24338;DHT22;12457;50.832;4.346;2023-09-12T06:44:22;22.60;99.90
24338;DHT22;12457;50.832;4.346;2023-09-12T06:46:48;22.50;99.90
24338;DHT22;12457;50.832;4.346;2023-09-12T06:49:14;22.50;99.90
24338;DHT22;12457;50.832;4.346;2023-09-12T06:51:39;22.60;99.90
24338;DHT22;12457;50.832;4.346;2023-09-12T06:54:07;22.60;99.90
24338;DHT22;12457;50.832;4.346;2023-09-12T06:56:32;22.70;99.90
24338;DHT22;12457;50.832;4.346;2023-09-12T06:59:07;22.90;99.90
24338;DHT22;12457;50.832;4.346;2023-09-12T07:01:33;22.90;99.90
24338;DHT22;12457;50.832;4.346;2023-09-12T07:03:58;23.00;99.90
24338;DHT22;12457;50.832;4.346;2023-09-12T07:06:42;23.00;99.90
24338;DHT22;12457;50.832;4.346;2023-09-12T07:09:08;23.00;99.90
24338;DHT22;12457;50.832;4.346;2023-09-12T07:11:35;23.10;99.90
24338;DHT22;12457;50.832;4.346;2023-09-12T07:14:00;23.10;99.90
24338;DHT22;12457;50.832;4.346;2023-09-12T07:16:26;23.20;99.90
24338;DHT22;12457;50.832;4.346;2023-09-12T07:18:52;23.10;99.90
24338;DHT22;12457;50.832;4.346;2023-09-12T07:21:18;23.00;99.90
24338;DHT22;12457;50.832;4.346;2023-09-12T07:23:43;22.90;99.90
24338;DHT22;12457;50.832;4.346;2023-09-12T07:26:13;23.00;99.90
24338;DHT22;12457;50.832;4.346;2023-09-12T07:28:39;23.00;99.90
24338;DHT22;12457;50.832;4.346;2023-09-12T07:31:05;22.90;99.90
24338;DHT22;12457;50.832;4.346;2023-09-12T07:33:32;22.70;99.90
24338;DHT22;12457;50.832;4.346;2023-09-12T07:35:57;22.80;99.90
24338;DHT22;12457;50.832;4.346;2023-09-12T07:38:25;23.10;99.90
24338;DHT22;12457;50.832;4.346;2023-09-12T07:40:51;23.30;99.90
24338;DHT22;12457;50.832;4.346;2023-09-12T07:43:16;23.50;99.90
24338;DHT22;12457;50.832;4.346;2023-09-12T07:45:42;23.70;99.90
24338;DHT22;12457;50.832;4.346;2023-09-12T07:48:09;24.00;99.90
24338;DHT22;12457;50.832;4.346;2023-09-12T07:50:37;24.30;99.90
24338;DHT22;12457;50.832;4.346;2023-09-12T07:53:06;24.40;99.90
24338;DHT22;12457;50.832;4.346;2023-09-12T07:55:32;24.60;99.90
24338;DHT22;12457;50.832;4.346;2023-09-12T07:58:02;24.70;99.90
24338;DHT22;12457;50.832;4.346;2023-09-12T08:00:28;24.50;99.90
24338;DHT22;12457;50.832;4.346;2023-09-12T08:02:53;24.50;99.90
24338;DHT22;12457;50.832;4.346;2023-09-12T08:05:19;24.50;99.90
24338;DHT22;12457;50.832;4.346;2023-09-12T08:07:45;24.80;99.90
24338;DHT22;12457;50.832;4.346;2023-09-12T08:10:11;24.90;99.90
24338;DHT22;12457;50.832;4.346;2023-09-12T08:12:36;24.90;99.90
24338;DHT22;12457;50.832;4.346;2023-09-12T08:15:07;25.00;99.90
24338;DHT22;12457;50.832;4.346;2023-09-12T08:17:33;24.90;99.90
24338;DHT22;12457;50.832;4.346;2023-09-12T08:19:58;25.00;99.90
24338;DHT22;12457;50.832;4.346;2023-09-12T08:22:24;24.90;99.90
24338;DHT22;12457;50.832;4.346;2023-09-12T08:24:50;24.80;99.90
24338;DHT22;12457;50.832;4.346;2023-09-12T08:27:15;24.70;99.90
24338;DHT22;12457;50.832;4.346;2023-09-12T08:29:41;24.90;99.90
24338;DHT22;12457;50.832;4.346;2023-09-12T08:32:09;25.10;99.90
24338;DHT22;12457;50.832;4.346;2023-09-12T08:34:34;25.30;99.90
24338;DHT22;12457;50.832;4.346;2023-09-12T08:37:00;25.30;99.90
24338;DHT22;12457;50.832;4.346;2023-09-12T08:39:27;24.70;99.90
24338;DHT22;12457;50.832;4.346;2023-09-12T08:41:54;24.50;99.90
24338;DHT22;12457;50.832;4.346;2023-09-12T08:44:20;24.40;99.90
24338;DHT22;12457;50.832;4.346;2023-09-12T08:46:47;24.40;99.90
24338;DHT22;12457;50.832;4.346;2023-09-12T08:49:13;24.30;99.90
24338;DHT22;12457;50.832;4.346;2023-09-12T08:51:40;24.50;99.90
24338;DHT22;12457;50.832;4.346;2023-09-12T08:54:10;24.70;99.90
24338;DHT22;12457;50.832;4.346;2023-09-12T08:56:39;24.80;99.90
24338;DHT22;12457;50.832;4.346;2023-09-12T08:59:07;25.00;99.90
24338;DHT22;12457;50.832;4.346;2023-09-12T09:01:35;25.20;99.90
24338;DHT22;12457;50.832;4.346;2023-09-12T09:04:02;25.20;99.90
24338;DHT22;12457;50.832;4.346;2023-09-12T09:06:30;25.40;99.90
24338;DHT22;12457;50.832;4.346;2023-09-12T09:08:58;25.60;99.90
24338;DHT22;12457;50.832;4.346;2023-09-12T09:11:25;25.70;99.90
24338;DHT22;12457;50.832;4.346;2023-09-12T09:13:53;25.90;99.90
24338;DHT22;12457;50.832;4.346;2023-09-12T09:16:19;26.00;99.90
24338;DHT22;12457;50.832;4.346;2023-09-12T09:21:23;26.50;99.90
24338;DHT22;12457;50.832;4.346;2023-09-12T09:23:51;26.70;99.90
24338;DHT22;12457;50.832;4.346;2023-09-12T09:26:17;26.80;99.90
24338;DHT22;12457;50.832;4.346;2023-09-12T09:28:43;27.00;99.90
24338;DHT22;12457;50.832;4.346;2023-09-12T09:31:12;27.30;99.90
24338;DHT22;12457;50.832;4.346;2023-09-12T09:33:41;27.40;99.90
24338;DHT22;12457;50.832;4.346;2023-09-12T09:36:16;27.30;99.90
24338;DHT22;12457;50.832;4.346;2023-09-12T09:38:42;27.30;99.90
24338;DHT22;12457;50.832;4.346;2023-09-12T09:41:08;27.40;99.90
24338;DHT22;12457;50.832;4.346;2023-09-12T09:43:35;27.40;99.90
24338;DHT22;12457;50.832;4.346;2023-09-12T09:46:02;27.20;99.90
24338;DHT22;12457;50.832;4.346;2023-09-12T09:48:29;27.00;99.90
24338;DHT22;12457;50.832;4.346;2023-09-12T09:51:03;27.10;99.90
24338;DHT22;12457;50.832;4.346;2023-09-12T09:53:30;27.30;99.90
24338;DHT22;12457;50.832;4.346;2023-09-12T09:56:14;27.10;99.90
24338;DHT22;12457;50.832;4.346;2023-09-12T09:58:56;27.00;99.90
24338;DHT22;12457;50.832;4.346;2023-09-12T10:01:26;27.10;99.90
24338;DHT22;12457;50.832;4.346;2023-09-12T10:03:54;26.80;99.90
24338;DHT22;12457;50.832;4.346;2023-09-12T10:06:23;26.70;99.90
24338;DHT22;12457;50.832;4.346;2023-09-12T10:08:51;26.80;99.90
24338;DHT22;12457;50.832;4.346;2023-09-12T10:11:19;26.70;99.90
24338;DHT22;12457;50.832;4.346;2023-09-12T10:14:02;26.80;99.90
24338;DHT22;12457;50.832;4.346;2023-09-12T10:16:35;26.90;99.90
24338;DHT22;12457;50.832;4.346;2023-09-12T10:24:49;27.90;99.90
24338;DHT22;12457;50.832;4.346;2023-09-12T10:27:19;28.30;99.90
24338;DHT22;12457;50.832;4.346;2023-09-12T10:29:45;28.60;99.90
24338;DHT22;12457;50.832;4.346;2023-09-12T10:32:14;28.70;99.90
24338;DHT22;12457;50.832;4.346;2023-09-12T10:34:41;29.00;99.90
24338;DHT22;12457;50.832;4.346;2023-09-12T10:37:16;29.20;99.90
24338;DHT22;12457;50.832;4.346;2023-09-12T10:39:43;29.10;99.90
24338;DHT22;12457;50.832;4.346;2023-09-12T10:42:10;29.00;99.90
24338;DHT22;12457;50.832;4.346;2023-09-12T10:44:40;28.80;99.90
24338;DHT22;12457;50.832;4.346;2023-09-12T10:47:06;28.80;99.90
24338;DHT22;12457;50.832;4.346;2023-09-12T10:49:32;28.90;99.90
24338;DHT22;12457;50.832;4.346;2023-09-12T10:52:01;28.70;99.90
24338;DHT22;12457;50.832;4.346;2023-09-12T10:54:38;28.70;99.90
24338;DHT22;12457;50.832;4.346;2023-09-12T10:57:05;28.40;99.90
24338;DHT22;12457;50.832;4.346;2023-09-12T10:59:31;28.30;99.90
24338;DHT22;12457;50.832;4.346;2023-09-12T11:05:05;28.20;99.90
24338;DHT22;12457;50.832;4.346;2023-09-12T11:10:17;27.80;99.90
24338;DHT22;12457;50.832;4.346;2023-09-12T11:12:47;27.30;99.90
24338;DHT22;12457;50.832;4.346;2023-09-12T11:15:14;27.30;99.90
24338;DHT22;12457;50.832;4.346;2023-09-12T11:17:44;27.30;99.90
24338;DHT22;12457;50.832;4.346;2023-09-12T11:20:13;27.30;99.90
24338;DHT22;12457;50.832;4.346;2023-09-12T11:22:45;27.30;99.90
24338;DHT22;12457;50.832;4.346;2023-09-12T11:30:26;27.20;99.90
24338;DHT22;12457;50.832;4.346;2023-09-12T11:32:56;27.50;99.90
24338;DHT22;12457;50.832;4.346;2023-09-12T11:35:26;28.00;99.90
24338;DHT22;12457;50.832;4.346;2023-09-12T11:37:57;28.50;99.90
24338;DHT22;12457;50.832;4.346;2023-09-12T11:42:59;28.40;99.90
24338;DHT22;12457;50.832;4.346;2023-09-12T11:45:25;28.40;99.90
24338;DHT22;12457;50.832;4.346;2023-09-12T11:47:51;28.40;99.90
24338;DHT22;12457;50.832;4.346;2023-09-12T11:50:34;28.60;99.90
24338;DHT22;12457;50.832;4.346;2023-09-12T11:53:11;28.70;99.90
24338;DHT22;12457;50.832;4.346;2023-09-12T11:55:45;28.90;99.90
24338;DHT22;12457;50.832;4.346;2023-09-12T11:58:12;29.10;99.90
24338;DHT22;12457;50.832;4.346;2023-09-12T12:01:01;29.20;99.90
24338;DHT22;12457;50.832;4.346;2023-09-12T12:03:30;28.90;99.90
24338;DHT22;12457;50.832;4.346;2023-09-12T12:05:56;28.20;99.90
24338;DHT22;12457;50.832;4.346;2023-09-12T12:08:22;27.90;99.90
24338;DHT22;12457;50.832;4.346;2023-09-12T12:10:52;27.70;99.90
24338;DHT22;12457;50.832;4.346;2023-09-12T12:13:19;27.70;99.90
24338;DHT22;12457;50.832;4.346;2023-09-12T12:15:45;28.00;99.90
24338;DHT22;12457;50.832;4.346;2023-09-12T12:18:11;28.10;99.90
24338;DHT22;12457;50.832;4.346;2023-09-12T12:20:37;28.20;99.90
24338;DHT22;12457;50.832;4.346;2023-09-12T12:23:05;27.90;99.90
24338;DHT22;12457;50.832;4.346;2023-09-12T12:25:35;27.80;99.90
24338;DHT22;12457;50.832;4.346;2023-09-12T12:28:01;27.90;99.90
24338;DHT22;12457;50.832;4.346;2023-09-12T12:30:31;28.00;99.90
24338;DHT22;12457;50.832;4.346;2023-09-12T12:32:59;28.00;99.90
24338;DHT22;12457;50.832;4.346;2023-09-12T12:35:25;28.10;99.90
24338;DHT22;12457;50.832;4.346;2023-09-12T12:37:57;27.80;99.90
24338;DHT22;12457;50.832;4.346;2023-09-12T12:40:23;27.40;99.90
24338;DHT22;12457;50.832;4.346;2023-09-12T12:42:50;27.30;99.90
24338;DHT22;12457;50.832;4.346;2023-09-12T12:45:20;27.10;99.90
24338;DHT22;12457;50.832;4.346;2023-09-12T12:47:50;27.30;99.90
24338;DHT22;12457;50.832;4.346;2023-09-12T12:50:18;27.50;99.90
24338;DHT22;12457;50.832;4.346;2023-09-12T12:56:08;28.00;99.90
24338;DHT22;12457;50.832;4.346;2023-09-12T12:58:36;28.30;99.90
24338;DHT22;12457;50.832;4.346;2023-09-12T13:01:02;28.10;99.90
24338;DHT22;12457;50.832;4.346;2023-09-12T13:03:28;27.60;99.90
24338;DHT22;12457;50.832;4.346;2023-09-12T13:05:54;27.90;99.90
24338;DHT22;12457;50.832;4.346;2023-09-12T13:08:28;28.00;99.90
24338;DHT22;12457;50.832;4.346;2023-09-12T13:10:56;28.00;99.90
24338;DHT22;12457;50.832;4.346;2023-09-12T13:13:22;27.90;99.90
24338;DHT22;12457;50.832;4.346;2023-09-12T13:15:47;28.00;99.90
24338;DHT22;12457;50.832;4.346;2023-09-12T13:18:13;28.10;99.90
24338;DHT22;12457;50.832;4.346;2023-09-12T13:20:39;28.10;99.90
24338;DHT22;12457;50.832;4.346;2023-09-12T13:23:04;27.80;99.90
24338;DHT22;12457;50.832;4.346;2023-09-12T13:25:30;28.00;99.90
24338;DHT22;12457;50.832;4.346;2023-09-12T13:27:56;28.00;99.90
24338;DHT22;12457;50.832;4.346;2023-09-12T13:30:22;27.80;99.90
24338;DHT22;12457;50.832;4.346;2023-09-12T13:32:47;27.30;99.90
24338;DHT22;12457;50.832;4.346;2023-09-12T13:35:13;27.20;99.90
24338;DHT22;12457;50.832;4.346;2023-09-12T13:37:40;27.30;99.90
24338;DHT22;12457;50.832;4.346;2023-09-12T13:40:06;27.50;99.90
24338;DHT22;12457;50.832;4.346;2023-09-12T13:42:35;27.60;99.90
24338;DHT22;12457;50.832;4.346;2023-09-12T13:45:01;27.70;99.90
24338;DHT22;12457;50.832;4.346;2023-09-12T13:47:26;27.70;99.90
24338;DHT22;12457;50.832;4.346;2023-09-12T13:49:52;27.80;99.90
24338;DHT22;12457;50.832;4.346;2023-09-12T13:52:22;27.90;99.90
24338;DHT22;12457;50.832;4.346;2023-09-12T13:54:49;27.90;99.90
24338;DHT22;12457;50.832;4.346;2023-09-12T13:57:16;27.90;99.90
24338;DHT22;12457;50.832;4.346;2023-09-12T13:59:42;28.10;99.90
24338;DHT22;12457;50.832;4.346;2023-09-12T14:02:09;27.80;99.90
24338;DHT22;12457;50.832;4.346;2023-09-12T14:04:35;27.50;99.90
24338;DHT22;12457;50.832;4.346;2023-09-12T14:07:01;27.10;99.90
24338;DHT22;12457;50.832;4.346;2023-09-12T14:09:28;27.10;99.90
24338;DHT22;12457;50.832;4.346;2023-09-12T14:11:54;27.00;99.90
24338;DHT22;12457;50.832;4.346;2023-09-12T14:14:20;27.00;99.90
24338;DHT22;12457;50.832;4.346;2023-09-12T14:16:45;27.20;99.90
24338;DHT22;12457;50.832;4.346;2023-09-12T14:19:11;27.00;99.90
24338;DHT22;12457;50.832;4.346;2023-09-12T14:21:37;26.80;99.90
24338;DHT22;12457;50.832;4.346;2023-09-12T14:24:04;26.60;99.90
24338;DHT22;12457;50.832;4.346;2023-09-12T14:26:32;26.60;99.90
24338;DHT22;12457;50.832;4.346;2023-09-12T14:28:58;26.70;99.90
24338;DHT22;12457;50.832;4.346;2023-09-12T14:31:23;26.30;99.90
24338;DHT22;12457;50.832;4.346;2023-09-12T14:33:49;26.10;99.90
24338;DHT22;12457;50.832;4.346;2023-09-12T14:36:19;26.00;99.90
24338;DHT22;12457;50.832;4.346;2023-09-12T14:38:55;25.90;99.90
24338;DHT22;12457;50.832;4.346;2023-09-12T14:41:20;26.10;99.90
24338;DHT22;12457;50.832;4.346;2023-09-12T14:43:46;26.20;99.90
24338;DHT22;12457;50.832;4.346;2023-09-12T14:46:13;26.10;99.90
24338;DHT22;12457;50.832;4.346;2023-09-12T14:48:39;25.80;99.90
24338;DHT22;12457;50.832;4.346;2023-09-12T14:51:04;25.60;99.90
24338;DHT22;12457;50.832;4.346;2023-09-12T14:53:30;25.60;99.90
24338;DHT22;12457;50.832;4.346;2023-09-12T14:55:57;25.70;99.90
24338;DHT22;12457;50.832;4.346;2023-09-12T14:58:24;25.50;99.90
24338;DHT22;12457;50.832;4.346;2023-09-12T15:00:50;25.30;99.90
24338;DHT22;12457;50.832;4.346;2023-09-12T15:03:17;25.40;99.90
24338;DHT22;12457;50.832;4.346;2023-09-12T15:05:42;25.10;99.90
24338;DHT22;12457;50.832;4.346;2023-09-12T15:08:09;25.00;99.90
24338;DHT22;12457;50.832;4.346;2023-09-12T15:10:36;25.00;99.90
24338;DHT22;12457;50.832;4.346;2023-09-12T15:13:01;25.20;99.90
24338;DHT22;12457;50.832;4.346;2023-09-12T15:15:30;25.20;99.90
24338;DHT22;12457;50.832;4.346;2023-09-12T15:17:56;25.10;99.90
24338;DHT22;12457;50.832;4.346;2023-09-12T15:20:22;25.20;99.90
24338;DHT22;12457;50.832;4.346;2023-09-12T15:22:48;25.30;99.90
24338;DHT22;12457;50.832;4.346;2023-09-12T15:25:22;25.30;99.90
24338;DHT22;12457;50.832;4.346;2023-09-12T15:27:48;25.50;99.90
24338;DHT22;12457;50.832;4.346;2023-09-12T15:30:14;25.70;99.90
24338;DHT22;12457;50.832;4.346;2023-09-12T15:32:43;25.70;99.90
24338;DHT22;12457;50.832;4.346;2023-09-12T15:35:12;25.50;99.90
24338;DHT22;12457;50.832;4.346;2023-09-12T15:37:38;25.50;99.90
24338;DHT22;12457;50.832;4.346;2023-09-12T15:40:06;25.60;99.90
24338;DHT22;12457;50.832;4.346;2023-09-12T15:42:32;25.30;99.90
24338;DHT22;12457;50.832;4.346;2023-09-12T15:44:57;25.10;99.90
24338;DHT22;12457;50.832;4.346;2023-09-12T15:47:23;25.10;99.90
24338;DHT22;12457;50.832;4.346;2023-09-12T15:49:49;25.10;99.90
24338;DHT22;12457;50.832;4.346;2023-09-12T15:52:15;25.00;99.90
24338;DHT22;12457;50.832;4.346;2023-09-12T15:54:41;25.00;99.90
24338;DHT22;12457;50.832;4.346;2023-09-12T15:57:07;24.90;99.90
24338;DHT22;12457;50.832;4.346;2023-09-12T15:59:32;24.80;99.90